createdAt,value
2018-05-27T00:02:02.346Z,11.17
2018-05-27T00:04:31.177Z,11.13
2018-05-27T00:07:00.009Z,12.40
2018-05-27T00:09:28.579Z,12.00
2018-05-27T00:11:57.929Z,12.93
2018-05-27T00:14:26.567Z,13.07
2018-05-27T00:16:55.337Z,13.20
2018-05-27T00:19:24.174Z,13.50
2018-05-27T00:21:53.715Z,13.10
2018-05-27T00:24:23.182Z,13.03
2018-05-27T00:26:51.999Z,13.67
2018-05-27T00:29:20.731Z,12.80
2018-05-27T00:31:49.508Z,12.47
2018-05-27T00:34:19.133Z,12.50
2018-05-27T00:36:47.959Z,11.50
2018-05-27T00:39:17.486Z,10.60
2018-05-27T00:41:46.218Z,10.67
2018-05-27T00:44:15.997Z,10.83
2018-05-27T00:46:44.861Z,10.53
2018-05-27T00:49:13.692Z,8.90
2018-05-27T00:51:42.529Z,8.07
2018-05-27T00:54:11.868Z,5.63
2018-05-27T00:56:41.333Z,4.40
2018-05-27T00:59:10.002Z,4.30
2018-05-27T01:01:39.031Z,3.80
2018-05-27T01:04:07.987Z,3.33
2018-05-27T01:06:38.054Z,3.53
2018-05-27T01:09:07.254Z,3.80
2018-05-27T01:11:35.763Z,3.77
2018-05-27T01:14:04.529Z,3.70
2018-05-27T01:16:33.265Z,3.40
2018-05-27T01:19:01.944Z,4.37
2018-05-27T01:21:30.506Z,3.80
2018-05-27T01:23:58.997Z,3.40
2018-05-27T01:26:27.743Z,3.47
2018-05-27T01:28:56.442Z,2.97
2018-05-27T01:31:25.072Z,3.30
2018-05-27T01:33:53.655Z,3.70
2018-05-27T01:36:22.213Z,4.60
2018-05-27T01:38:52.160Z,5.27
2018-05-27T01:41:20.847Z,4.87
2018-05-27T01:43:49.569Z,6.27
2018-05-27T01:46:18.598Z,6.43
2018-05-27T01:48:47.428Z,7.63
2018-05-27T01:51:16.238Z,8.10
2018-05-27T01:53:45.061Z,8.80
2018-05-27T01:56:13.782Z,9.47
2018-05-27T01:58:42.558Z,9.93
2018-05-27T02:01:11.387Z,11.17
2018-05-27T02:03:40.027Z,11.67
2018-05-27T02:06:08.770Z,12.03
2018-05-27T02:08:37.494Z,11.60
2018-05-27T02:11:06.330Z,12.40
2018-05-27T02:13:34.906Z,13.30
2018-05-27T02:16:03.664Z,13.23
2018-05-27T02:18:32.307Z,14.37
2018-05-27T02:21:01.026Z,14.67
2018-05-27T02:23:29.897Z,14.63
2018-05-27T02:25:58.707Z,15.07
2018-05-27T02:28:27.562Z,15.43
2018-05-27T02:30:57.037Z,15.30
2018-05-27T02:33:25.475Z,15.20
2018-05-27T02:35:54.252Z,16.20
2018-05-27T02:38:23.872Z,15.40
2018-05-27T02:40:52.611Z,15.20
2018-05-27T02:43:21.342Z,15.93
2018-05-27T02:45:50.760Z,15.77
2018-05-27T02:48:19.264Z,15.47
2018-05-27T02:50:48.031Z,16.53
2018-05-27T02:53:16.864Z,15.50
2018-05-27T02:55:45.694Z,15.80
2018-05-27T02:58:14.528Z,16.13
2018-05-27T03:00:43.350Z,16.03
2018-05-27T03:03:11.856Z,15.63
2018-05-27T03:05:40.535Z,16.00
2018-05-27T03:08:09.232Z,15.70
2018-05-27T03:10:37.901Z,14.97
2018-05-27T03:13:06.733Z,15.40
2018-05-27T03:15:35.565Z,16.07
2018-05-27T03:18:04.373Z,15.60
2018-05-27T03:20:33.190Z,15.67
2018-05-27T03:23:01.865Z,15.20
2018-05-27T03:25:30.709Z,15.13
2018-05-27T03:27:59.528Z,16.03
2018-05-27T03:30:28.755Z,15.50
2018-05-27T03:32:57.486Z,15.40
2018-05-27T03:35:26.195Z,15.67
2018-05-27T03:37:55.054Z,15.03
2018-05-27T03:40:23.885Z,15.07
2018-05-27T03:42:52.651Z,14.70
2018-05-27T03:45:22.139Z,15.37
2018-05-27T03:47:50.971Z,15.30
2018-05-27T03:50:19.799Z,14.93
2018-05-27T03:52:48.523Z,15.10
2018-05-27T03:55:17.233Z,15.40
2018-05-27T03:57:45.976Z,15.40
2018-05-27T04:00:14.519Z,15.20
2018-05-27T04:02:43.372Z,14.90
2018-05-27T04:05:29.566Z,15.30
2018-05-27T04:08:15.840Z,14.77
2018-05-27T04:10:44.335Z,15.47
2018-05-27T04:13:12.910Z,14.80
2018-05-27T04:15:42.246Z,13.90
2018-05-27T04:18:10.941Z,15.03
2018-05-27T04:20:39.799Z,14.70
2018-05-27T04:23:08.635Z,14.37
2018-05-27T04:25:37.367Z,14.30
2018-05-27T04:28:05.812Z,14.33
2018-05-27T04:30:34.501Z,14.40
2018-05-27T04:35:37.905Z,14.77
2018-05-27T04:38:06.735Z,14.77
2018-05-27T04:40:35.455Z,14.70
2018-05-27T04:43:04.159Z,14.57
2018-05-27T04:45:33.035Z,14.57
2018-05-27T04:48:01.868Z,14.40
2018-05-27T04:50:30.566Z,14.07
2018-05-27T04:52:59.198Z,14.27
2018-05-27T04:55:27.898Z,14.27
2018-05-27T04:57:57.316Z,13.63
2018-05-27T05:00:26.793Z,13.17
2018-05-27T05:02:55.645Z,13.10
2018-05-27T05:05:24.143Z,12.63
2018-05-27T05:07:53.234Z,13.57
2018-05-27T05:10:22.703Z,12.07
2018-05-27T05:12:51.418Z,11.40
2018-05-27T05:15:19.989Z,11.50
2018-05-27T05:17:48.753Z,11.37
2018-05-27T05:20:18.230Z,11.40
2018-05-27T05:22:47.090Z,10.47
2018-05-27T05:25:15.920Z,10.40
2018-05-27T05:27:44.613Z,10.43
2018-05-27T05:30:13.395Z,10.13
2018-05-27T05:32:42.085Z,10.43
2018-05-27T05:35:10.775Z,10.27
2018-05-27T05:37:40.244Z,9.90
2018-05-27T05:40:09.309Z,9.87
2018-05-27T05:42:38.924Z,9.70
2018-05-27T05:45:08.495Z,9.47
2018-05-27T05:47:37.488Z,9.23
2018-05-27T05:50:07.197Z,8.33
2018-05-27T05:52:36.469Z,8.70
2018-05-27T05:55:05.500Z,8.80
2018-05-27T05:57:34.274Z,9.07
2018-05-27T06:00:02.976Z,8.30
2018-05-27T06:02:31.669Z,8.60
2018-05-27T06:05:01.022Z,8.60
2018-05-27T06:07:29.800Z,8.73
2018-05-27T06:09:58.636Z,8.70
2018-05-27T06:12:27.336Z,8.50
2018-05-27T06:14:55.959Z,8.67
2018-05-27T06:17:24.645Z,8.70
2018-05-27T06:19:53.288Z,8.43
2018-05-27T06:22:22.007Z,8.70
2018-05-27T06:24:50.646Z,8.93
2018-05-27T06:27:19.338Z,8.57
2018-05-27T06:29:48.034Z,8.30
2018-05-27T06:32:17.500Z,8.67
2018-05-27T06:34:45.970Z,8.70
2018-05-27T06:37:14.802Z,8.10
2018-05-27T06:39:43.634Z,7.97
2018-05-27T06:42:13.247Z,8.47
2018-05-27T06:44:42.091Z,8.10
2018-05-27T06:47:11.704Z,7.97
2018-05-27T06:49:40.497Z,7.73
2018-05-27T06:52:09.089Z,8.30
2018-05-27T06:54:37.783Z,8.37
2018-05-27T06:57:06.646Z,8.73
2018-05-27T06:59:35.077Z,8.00
2018-05-27T07:02:03.719Z,7.77
2018-05-27T07:04:32.473Z,7.73
2018-05-27T07:07:01.190Z,7.67
2018-05-27T07:09:30.014Z,8.20
2018-05-27T07:11:58.843Z,8.33
2018-05-27T07:14:27.677Z,8.60
2018-05-27T07:16:56.488Z,8.17
2018-05-27T07:19:25.082Z,8.07
2018-05-27T07:21:54.522Z,8.30
2018-05-27T07:24:23.201Z,7.67
2018-05-27T07:26:52.807Z,7.47
2018-05-27T07:29:21.377Z,6.93
2018-05-27T07:31:51.589Z,7.77
2018-05-27T07:34:20.213Z,8.10
2018-05-27T07:36:49.376Z,7.43
2018-05-27T07:39:18.019Z,7.33
2018-05-27T07:41:46.804Z,8.10
2018-05-27T07:44:15.675Z,8.10
2018-05-27T07:46:44.382Z,8.10
2018-05-27T07:49:13.790Z,8.50
2018-05-27T07:51:42.374Z,8.33
2018-05-27T07:54:10.956Z,8.80
2018-05-27T07:56:39.691Z,8.93
2018-05-27T07:59:09.335Z,8.20
2018-05-27T08:01:38.800Z,8.43
2018-05-27T08:04:07.530Z,8.10
2018-05-27T08:06:36.491Z,8.80
2018-05-27T08:09:05.183Z,8.30
2018-05-27T08:11:33.871Z,8.80
2018-05-27T08:14:02.455Z,8.43
2018-05-27T08:16:31.234Z,8.70
2018-05-27T08:19:00.074Z,8.70
2018-05-27T08:21:28.890Z,8.90
2018-05-27T08:23:57.728Z,8.90
2018-05-27T08:26:26.432Z,8.23
2018-05-27T08:28:55.000Z,9.00
2018-05-27T08:31:23.687Z,8.90
2018-05-27T08:33:52.378Z,9.13
2018-05-27T08:36:21.103Z,8.60
2018-05-27T08:38:49.794Z,8.70
2018-05-27T08:41:18.479Z,8.30
2018-05-27T08:43:47.205Z,7.97
2018-05-27T08:46:16.628Z,8.53
2018-05-27T08:48:45.902Z,8.63
2018-05-27T08:51:14.599Z,8.30
2018-05-27T08:53:43.982Z,8.73
2018-05-27T08:56:12.941Z,7.93
2018-05-27T08:58:42.467Z,7.90
2018-05-27T09:01:12.098Z,7.90
2018-05-27T09:03:40.873Z,8.00
2018-05-27T09:06:09.448Z,8.10
2018-05-27T09:08:38.245Z,7.53
2018-05-27T09:11:06.798Z,8.13
2018-05-27T09:13:35.419Z,7.77
2018-05-27T09:16:04.152Z,7.63
2018-05-27T09:18:32.640Z,7.20
2018-05-27T09:21:01.316Z,7.37
2018-05-27T09:23:30.204Z,6.80
2018-05-27T09:25:58.897Z,6.63
2018-05-27T09:28:27.640Z,6.87
2018-05-27T09:30:56.753Z,6.40
2018-05-27T09:33:25.626Z,6.13
2018-05-27T09:35:55.629Z,6.30
2018-05-27T09:38:24.336Z,6.00
2018-05-27T09:40:53.073Z,5.80
2018-05-27T09:43:21.502Z,5.67
2018-05-27T09:45:50.370Z,6.30
2018-05-27T09:48:19.179Z,6.33
2018-05-27T09:50:48.040Z,6.13
2018-05-27T09:53:16.530Z,5.80
2018-05-27T09:55:45.209Z,5.43
2018-05-27T09:58:13.959Z,5.57
2018-05-27T10:00:42.770Z,6.40
2018-05-27T10:03:11.481Z,6.27
2018-05-27T10:05:40.028Z,5.70
2018-05-27T10:08:08.873Z,6.20
2018-05-27T10:10:37.706Z,5.93
2018-05-27T10:13:06.506Z,6.50
2018-05-27T10:15:34.995Z,6.30
2018-05-27T10:18:04.594Z,6.40
2018-05-27T10:20:34.207Z,5.53
2018-05-27T10:23:02.923Z,5.90
2018-05-27T10:25:31.681Z,6.13
2018-05-27T10:28:00.762Z,5.90
2018-05-27T10:30:29.546Z,5.67
2018-05-27T10:32:58.380Z,6.53
2018-05-27T10:35:27.797Z,5.90
2018-05-27T10:37:56.432Z,6.30
2018-05-27T10:40:25.119Z,6.27
2018-05-27T10:42:53.900Z,5.80
2018-05-27T10:45:22.590Z,5.57
2018-05-27T10:47:51.221Z,5.90
2018-05-27T10:50:19.915Z,5.80
2018-05-27T10:52:48.654Z,5.33
2018-05-27T10:55:17.331Z,5.80
2018-05-27T10:57:46.018Z,6.50
2018-05-27T11:00:14.740Z,6.40
2018-05-27T11:02:43.527Z,6.70
2018-05-27T11:05:12.405Z,6.70
2018-05-27T11:07:42.432Z,6.00
2018-05-27T11:10:11.252Z,6.30
2018-05-27T11:12:40.117Z,7.00
2018-05-27T11:15:08.825Z,5.93
2018-05-27T11:17:37.516Z,6.43
2018-05-27T11:20:06.380Z,8.53
2018-05-27T11:22:34.992Z,9.53
2018-05-27T11:25:04.295Z,6.30
2018-05-27T11:27:32.777Z,6.30
2018-05-27T11:30:01.315Z,6.73
2018-05-27T11:32:30.316Z,6.70
2018-05-27T11:34:59.179Z,5.73
2018-05-27T11:37:27.726Z,5.90
2018-05-27T11:39:56.416Z,6.20
2018-05-27T11:42:25.278Z,5.90
2018-05-27T11:44:54.112Z,6.00
2018-05-27T11:47:22.548Z,6.50
2018-05-27T11:49:51.381Z,6.10
2018-05-27T11:52:20.075Z,5.90
2018-05-27T11:54:48.711Z,5.57
2018-05-27T11:57:17.287Z,6.27
2018-05-27T11:59:46.423Z,6.07
2018-05-27T12:02:15.049Z,6.13
2018-05-27T12:04:44.237Z,6.10
2018-05-27T12:07:14.047Z,5.57
2018-05-27T12:09:42.914Z,5.77
2018-05-27T12:12:11.460Z,5.67
2018-05-27T12:14:40.663Z,5.70
2018-05-27T12:17:09.380Z,5.70
2018-05-27T12:19:38.610Z,5.90
2018-05-27T12:22:07.247Z,5.53
2018-05-27T12:24:35.931Z,5.93
2018-05-27T12:27:04.508Z,5.33
2018-05-27T12:29:33.283Z,5.40
2018-05-27T12:32:02.182Z,5.57
2018-05-27T12:34:31.851Z,5.40
2018-05-27T12:37:01.407Z,6.20
2018-05-27T12:39:30.184Z,6.00
2018-05-27T12:41:58.981Z,5.43
2018-05-27T12:44:28.635Z,6.27
2018-05-27T12:46:57.472Z,5.63
2018-05-27T12:49:27.282Z,6.67
2018-05-27T12:51:56.032Z,5.70
2018-05-27T12:54:25.536Z,5.80
2018-05-27T12:56:54.313Z,6.10
2018-05-27T12:59:23.789Z,6.10
2018-05-27T13:01:52.619Z,6.43
2018-05-27T13:04:21.395Z,6.20
2018-05-27T13:06:49.952Z,6.27
2018-05-27T13:09:19.518Z,5.80
2018-05-27T13:11:48.269Z,10.40
2018-05-27T13:14:17.577Z,6.17
2018-05-27T13:16:46.346Z,6.33
2018-05-27T13:19:14.847Z,5.93
2018-05-27T13:21:43.587Z,6.17
2018-05-27T13:24:13.053Z,5.87
2018-05-27T13:26:41.843Z,6.00
2018-05-27T13:29:11.112Z,5.87
2018-05-27T13:31:39.983Z,5.53
2018-05-27T13:34:08.521Z,5.80
2018-05-27T13:36:37.706Z,6.07
2018-05-27T13:39:06.872Z,5.60
2018-05-27T13:41:35.703Z,5.87
2018-05-27T13:44:04.339Z,5.93
2018-05-27T13:46:33.565Z,5.43
2018-05-27T13:49:02.179Z,5.50
2018-05-27T13:51:30.747Z,5.57
2018-05-27T13:54:00.043Z,5.77
2018-05-27T13:56:28.892Z,6.00
2018-05-27T13:58:58.696Z,5.43
2018-05-27T14:01:27.542Z,5.40
2018-05-27T14:03:56.540Z,5.40
2018-05-27T14:06:25.328Z,5.10
2018-05-27T14:08:55.494Z,5.30
2018-05-27T14:11:24.247Z,5.90
2018-05-27T14:13:53.078Z,5.47
2018-05-27T14:16:22.105Z,5.40
2018-05-27T14:18:51.731Z,5.53
2018-05-27T14:21:21.002Z,6.27
2018-05-27T14:23:49.782Z,6.37
2018-05-27T14:26:18.468Z,5.83
2018-05-27T14:28:47.246Z,5.60
2018-05-27T14:31:15.949Z,5.20
2018-05-27T14:33:44.471Z,5.37
2018-05-27T14:36:13.358Z,6.03
2018-05-27T14:38:43.123Z,6.10
2018-05-27T14:41:11.891Z,6.27
2018-05-27T14:43:40.711Z,5.60
2018-05-27T14:46:10.217Z,5.50
2018-05-27T14:48:38.797Z,5.83
2018-05-27T14:51:07.530Z,5.10
2018-05-27T14:53:36.237Z,4.87
2018-05-27T14:56:04.948Z,5.10
2018-05-27T14:58:33.818Z,5.60
2018-05-27T15:01:02.510Z,5.47
2018-05-27T15:03:31.160Z,5.93
2018-05-27T15:05:59.855Z,6.00
2018-05-27T15:08:29.355Z,6.47
2018-05-27T15:10:58.182Z,6.00
2018-05-27T15:13:27.010Z,6.50
2018-05-27T15:15:55.699Z,6.20
2018-05-27T15:18:24.696Z,6.27
2018-05-27T15:20:53.510Z,5.63
2018-05-27T15:23:22.194Z,6.17
2018-05-27T15:25:51.170Z,5.80
2018-05-27T15:28:19.714Z,6.00
2018-05-27T15:30:48.437Z,5.60
2018-05-27T15:33:17.270Z,5.50
2018-05-27T15:35:45.835Z,5.20
2018-05-27T15:38:15.580Z,5.93
2018-05-27T15:40:44.358Z,6.00
2018-05-27T15:43:13.132Z,6.20
2018-05-27T15:45:41.896Z,5.83
2018-05-27T15:48:11.108Z,5.70
2018-05-27T15:50:39.696Z,6.30
2018-05-27T15:53:08.516Z,5.53
2018-05-27T15:55:37.207Z,5.33
2018-05-27T15:58:05.983Z,3.53
2018-05-27T16:00:34.815Z,3.60
2018-05-27T16:03:03.522Z,2.90
2018-05-27T16:05:32.087Z,4.17
2018-05-27T16:08:01.430Z,4.73
2018-05-27T16:10:31.133Z,6.40
2018-05-27T16:12:59.629Z,6.67
2018-05-27T16:15:28.358Z,7.07
2018-05-27T16:17:57.277Z,6.40
2018-05-27T16:20:27.559Z,7.60
2018-05-27T16:22:56.537Z,7.10
2018-05-27T16:25:25.303Z,7.00
2018-05-27T16:27:54.130Z,6.57
2018-05-27T16:30:23.513Z,7.07
2018-05-27T16:32:52.111Z,7.00
2018-05-27T16:35:21.587Z,7.77
2018-05-27T16:37:50.441Z,8.27
2018-05-27T16:40:19.990Z,7.83
2018-05-27T16:42:49.449Z,8.10
2018-05-27T16:45:18.116Z,9.13
2018-05-27T16:47:46.870Z,9.07
2018-05-27T16:50:16.375Z,9.70
2018-05-27T16:52:45.090Z,8.30
2018-05-27T16:55:13.762Z,8.10
2018-05-27T16:57:43.234Z,8.37
2018-05-27T17:00:12.107Z,8.73
2018-05-27T17:02:40.735Z,8.90
2018-05-27T17:05:09.417Z,9.63
2018-05-27T17:07:38.127Z,7.90
2018-05-27T17:10:07.492Z,7.40
2018-05-27T17:12:36.211Z,7.40
2018-05-27T17:15:04.953Z,7.67
2018-05-27T17:17:33.623Z,7.63
2018-05-27T17:20:03.337Z,6.67
2018-05-27T17:22:32.172Z,5.90
2018-05-27T17:25:01.199Z,6.70
2018-05-27T17:27:30.093Z,5.63
2018-05-27T17:29:58.870Z,5.30
2018-05-27T17:32:27.654Z,5.33
2018-05-27T17:34:56.527Z,5.40
2018-05-27T17:37:25.220Z,4.47
2018-05-27T17:39:54.010Z,4.80
2018-05-27T17:42:22.823Z,4.57
2018-05-27T17:44:51.655Z,3.67
2018-05-27T17:47:20.342Z,2.97
2018-05-27T17:49:48.995Z,3.10
2018-05-27T17:52:18.545Z,3.10
2018-05-27T17:54:47.280Z,2.90
2018-05-27T17:57:17.055Z,2.87
2018-05-27T17:59:46.025Z,2.90
2018-05-27T18:02:14.541Z,3.10
2018-05-27T18:04:43.434Z,3.30
2018-05-27T18:07:12.094Z,3.43
2018-05-27T18:09:40.957Z,3.40
2018-05-27T18:12:09.596Z,3.43
2018-05-27T18:14:39.212Z,3.20
2018-05-27T18:17:08.052Z,3.50
2018-05-27T18:19:36.884Z,3.10
2018-05-27T18:22:05.568Z,3.43
2018-05-27T18:24:34.213Z,3.57
2018-05-27T18:27:03.051Z,4.30
2018-05-27T18:29:31.728Z,4.20
2018-05-27T18:32:01.141Z,4.33
2018-05-27T18:34:29.867Z,5.80
2018-05-27T18:36:58.517Z,5.30
2018-05-27T18:39:28.123Z,5.17
2018-05-27T18:41:56.860Z,5.20
2018-05-27T18:44:25.592Z,5.53
2018-05-27T18:46:54.279Z,6.73
2018-05-27T18:49:22.766Z,6.50
2018-05-27T18:51:51.456Z,7.47
2018-05-27T18:54:20.137Z,8.97
2018-05-27T18:56:48.824Z,7.67
2018-05-27T18:59:18.131Z,7.90
2018-05-27T19:01:46.874Z,7.40
2018-05-27T19:04:15.507Z,8.93
2018-05-27T19:06:44.209Z,6.87
2018-05-27T19:09:12.974Z,7.40
2018-05-27T19:11:41.668Z,7.20
2018-05-27T19:14:10.261Z,8.87
2018-05-27T19:16:40.001Z,8.63
2018-05-27T19:19:08.849Z,9.47
2018-05-27T19:21:37.537Z,8.50
2018-05-27T19:24:06.230Z,8.60
2018-05-27T19:26:34.874Z,7.30
2018-05-27T19:29:04.239Z,7.77
2018-05-27T19:31:32.811Z,5.97
2018-05-27T19:34:01.639Z,6.93
2018-05-27T19:36:31.658Z,6.73
2018-05-27T19:39:01.268Z,5.53
2018-05-27T19:41:30.157Z,5.47
2018-05-27T19:43:58.796Z,5.30
2018-05-27T19:46:27.487Z,5.80
2018-05-27T19:48:56.331Z,4.90
2018-05-27T19:51:25.875Z,4.00
2018-05-27T19:53:54.522Z,4.67
2018-05-27T19:56:23.004Z,5.07
2018-05-27T19:58:51.848Z,4.87
2018-05-27T20:01:21.547Z,5.60
2018-05-27T20:03:50.231Z,5.63
2018-05-27T20:06:19.654Z,5.67
2018-05-27T20:08:48.299Z,7.10
2018-05-27T20:11:16.982Z,8.47
2018-05-27T20:13:45.488Z,14.43
2018-05-27T20:16:14.337Z,8.53
2018-05-27T20:18:43.032Z,17.27
2018-05-27T20:21:11.680Z,10.37
2018-05-27T20:23:40.422Z,7.27
2018-05-27T20:26:09.233Z,10.97
2018-05-27T20:28:37.883Z,16.07
2018-05-27T20:31:06.398Z,14.67
2018-05-27T20:33:35.189Z,13.30
2018-05-27T20:36:03.983Z,13.93
2018-05-27T20:38:32.842Z,18.53
2018-05-27T20:41:01.847Z,16.57
2018-05-27T20:43:30.703Z,22.47
2018-05-27T20:45:59.541Z,26.80
2018-05-27T20:48:28.369Z,34.20
2018-05-27T20:50:57.200Z,32.20
2018-05-27T20:53:25.829Z,28.70
2018-05-27T20:55:54.666Z,27.80
2018-05-27T20:58:23.498Z,37.13
2018-05-27T21:00:52.329Z,34.40
2018-05-27T21:03:20.965Z,32.87
2018-05-27T21:05:50.191Z,29.00
2018-05-27T21:08:18.890Z,30.93
2018-05-27T21:10:47.518Z,36.87
2018-05-27T21:13:16.466Z,34.90
2018-05-27T21:15:45.232Z,38.13
2018-05-27T21:18:13.958Z,34.83
2018-05-27T21:20:42.803Z,42.80
2018-05-27T21:23:11.485Z,39.07
2018-05-27T21:25:40.257Z,42.83
2018-05-27T21:28:08.946Z,48.17
2018-05-27T21:30:37.724Z,49.57
2018-05-27T21:33:06.556Z,45.00
2018-05-27T21:35:35.389Z,38.20
2018-05-27T21:38:04.540Z,36.60
2018-05-27T21:40:34.006Z,42.73
2018-05-27T21:43:02.876Z,46.87
2018-05-27T21:45:32.367Z,34.87
2018-05-27T21:48:01.180Z,35.00
2018-05-27T21:50:30.149Z,36.13
2018-05-27T21:52:58.901Z,39.27
2018-05-27T21:55:28.410Z,55.20
2018-05-27T21:57:57.098Z,41.87
2018-05-27T22:00:25.872Z,28.37
2018-05-27T22:02:54.572Z,41.90
2018-05-27T22:05:23.305Z,32.43
2018-05-27T22:07:52.098Z,40.97
2018-05-27T22:10:21.451Z,41.07
2018-05-27T22:12:50.137Z,36.43
2018-05-27T22:15:18.836Z,44.00
2018-05-27T22:17:47.696Z,44.67
2018-05-27T22:20:16.931Z,44.53
2018-05-27T22:22:45.756Z,48.00
2018-05-27T22:25:15.175Z,63.80
2018-05-27T22:27:43.720Z,48.73
2018-05-27T22:30:13.608Z,41.30
2018-05-27T22:32:42.458Z,44.60
2018-05-27T22:35:11.164Z,51.40
2018-05-27T22:37:39.923Z,44.30
2018-05-27T22:40:08.955Z,50.43
2018-05-27T22:42:37.657Z,64.87
2018-05-27T22:45:06.279Z,62.47
2018-05-27T22:47:34.834Z,43.77
2018-05-27T22:50:03.570Z,41.87
2018-05-27T22:52:32.287Z,35.70
2018-05-27T22:55:01.163Z,42.73
2018-05-27T22:57:29.970Z,59.67
2018-05-27T22:59:58.822Z,66.60
2018-05-27T23:02:27.663Z,37.17
2018-05-27T23:04:56.496Z,35.27
2018-05-27T23:07:25.891Z,38.97
2018-05-27T23:09:54.544Z,36.47
2018-05-27T23:12:23.899Z,38.13
2018-05-27T23:14:53.386Z,40.93
2018-05-27T23:17:23.006Z,36.53
2018-05-27T23:19:51.824Z,40.13
2018-05-27T23:22:20.335Z,39.43
2018-05-27T23:24:49.039Z,40.30
2018-05-27T23:27:18.402Z,37.83
2018-05-27T23:29:47.165Z,28.00
2018-05-27T23:32:15.701Z,31.30
2018-05-27T23:34:44.407Z,42.17
2018-05-27T23:37:13.273Z,39.53
2018-05-27T23:39:41.965Z,39.13
2018-05-27T23:42:10.738Z,46.73
2018-05-27T23:44:40.944Z,60.17
2018-05-27T23:47:09.638Z,40.00
2018-05-27T23:49:38.413Z,41.87
2018-05-27T23:52:07.107Z,40.77
2018-05-27T23:54:35.792Z,44.87
2018-05-27T23:57:04.438Z,40.47
2018-05-27T23:59:33.936Z,49.97
